Time;durP1;ratioP1;P1;durP2;ratioP2;P2;SDS_P1;SDS_P2;PMS_P1;PMS_P2;Temp;Humidity;BMP_temperature;BMP_pressure;BME280_temperature;BME280_humidity;BME280_pressure;Samples;Min_cycle;Max_cycle;Signal;HPM_P1;HPM_P2
2022/07/10 00:02:03;;;;;;;4.00;3.60;;;;;;;19.24;62.41;100097.66;4990176;28;20511;-75
2022/07/10 00:04:29;;;;;;;3.57;3.37;;;;;;;19.26;62.39;100087.72;4994458;28;20261;-75
2022/07/10 00:06:55;;;;;;;3.93;3.63;;;;;;;19.32;62.14;100086.31;4990608;28;20505;-75
2022/07/10 00:09:22;;;;;;;2.33;2.13;;;;;;;19.32;62.26;100081.81;4990558;28;20247;-75
2022/07/10 00:11:47;;;;;;;3.77;3.47;;;;;;;19.34;62.06;100089.69;4991249;28;20482;-75
2022/07/10 00:14:12;;;;;;;4.20;3.90;;;;;;;19.34;62.05;100087.00;4999888;28;20498;-76
2022/07/10 00:16:38;;;;;;;5.03;2.93;;;;;;;19.30;62.44;100086.44;5004744;28;20223;-75
2022/07/10 00:19:03;;;;;;;3.30;3.00;;;;;;;19.26;62.64;100084.22;4994974;28;20209;-75
2022/07/10 00:21:29;;;;;;;2.77;2.57;;;;;;;19.26;62.12;100086.88;4993431;28;20234;-75
2022/07/10 00:23:54;;;;;;;3.37;2.97;;;;;;;19.22;62.16;100088.97;4994433;28;20207;-75
2022/07/10 00:26:19;;;;;;;3.10;2.90;;;;;;;19.21;62.40;100087.28;5004647;28;20247;-75
2022/07/10 00:28:45;;;;;;;3.10;2.90;;;;;;;19.22;62.33;100089.81;5000853;28;20246;-75
2022/07/10 00:31:10;;;;;;;5.23;4.20;;;;;;;19.24;62.25;100082.50;4991412;28;20686;-75
2022/07/10 00:33:37;;;;;;;7.53;3.80;;;;;;;19.28;62.76;100085.75;4984619;28;20493;-75
2022/07/10 00:36:05;;;;;;;5.23;4.77;;;;;;;19.29;62.60;100078.59;4996238;28;20215;-75
2022/07/10 00:38:30;;;;;;;5.23;4.00;;;;;;;19.35;62.29;100080.69;4993545;28;20466;-75
2022/07/10 00:40:56;;;;;;;3.70;3.40;;;;;;;19.37;62.17;100074.25;4991029;28;20464;-76
2022/07/10 00:43:21;;;;;;;3.90;3.60;;;;;;;19.33;62.20;100085.31;4986857;28;20286;-75
2022/07/10 00:45:48;;;;;;;3.67;3.07;;;;;;;19.27;62.37;100080.56;4994495;28;20297;-75
2022/07/10 00:48:14;;;;;;;3.07;2.77;;;;;;;19.20;62.60;100081.13;4996564;28;20209;-74
2022/07/10 00:50:41;;;;;;;4.70;4.30;;;;;;;19.20;62.66;100088.28;4995126;28;20485;-76
2022/07/10 00:53:07;;;;;;;4.97;3.60;;;;;;;19.20;62.67;100080.31;4983446;28;20232;-75
2022/07/10 00:55:35;;;;;;;3.97;3.40;;;;;;;19.18;62.82;100085.75;4985393;28;20842;-76
2022/07/10 00:58:01;;;;;;;3.40;3.13;;;;;;;19.15;62.90;100085.22;4991129;28;20212;-75
2022/07/10 01:00:27;;;;;;;4.80;3.70;;;;;;;19.14;62.95;100086.16;4990332;28;20502;-75
2022/07/10 01:02:53;;;;;;;3.40;3.10;;;;;;;19.16;62.91;100082.38;4983818;28;20454;-75
2022/07/10 01:05:19;;;;;;;3.27;2.97;;;;;;;19.20;62.66;100073.16;4993580;28;20539;-75
2022/07/10 01:07:44;;;;;;;4.13;3.43;;;;;;;19.25;62.54;100075.34;5001030;28;21216;-75
2022/07/10 01:10:10;;;;;;;3.90;3.53;;;;;;;19.27;62.65;100076.06;4989747;28;20232;-75
2022/07/10 01:12:36;;;;;;;4.07;3.77;;;;;;;19.27;62.53;100076.06;4982729;28;20259;-75
2022/07/10 01:15:01;;;;;;;3.70;3.40;;;;;;;19.29;62.40;100070.63;4968413;28;20219;-75
2022/07/10 01:17:29;;;;;;;4.60;3.70;;;;;;;19.28;62.44;100071.56;4992470;28;20224;-75
2022/07/10 01:19:54;;;;;;;3.20;2.90;;;;;;;19.23;62.49;100064.88;4991725;28;20584;-75
2022/07/10 01:22:20;;;;;;;4.20;3.80;;;;;;;19.22;62.56;100067.66;4982952;28;20548;-75
2022/07/10 01:24:45;;;;;;;3.70;3.40;;;;;;;19.18;62.61;100067.13;4985470;28;20250;-76
2022/07/10 01:27:11;;;;;;;3.90;3.13;;;;;;;19.14;62.85;100067.53;4984736;28;20212;-75
2022/07/10 01:29:37;;;;;;;6.33;4.53;;;;;;;19.12;62.89;100070.34;4992262;28;20240;-76
2022/07/10 01:32:03;;;;;;;3.30;3.10;;;;;;;19.07;62.85;100072.59;4985120;28;20970;-76
2022/07/10 01:34:29;;;;;;;4.37;3.97;;;;;;;19.01;63.21;100067.84;4990984;28;20457;-75
2022/07/10 01:36:54;;;;;;;4.43;3.60;;;;;;;18.94;63.33;100078.19;4984416;28;20235;-75
2022/07/10 01:39:20;;;;;;;4.13;3.50;;;;;;;18.82;63.72;100076.63;4983422;28;21175;-75
2022/07/10 01:41:45;;;;;;;4.10;3.70;;;;;;;18.70;63.92;100072.41;4982386;28;20941;-75
2022/07/10 01:44:11;;;;;;;3.90;3.60;;;;;;;18.61;64.20;100070.59;4999108;28;21475;-75
2022/07/10 01:46:46;;;;;;;3.80;3.50;;;;;;;18.55;64.22;100072.81;4995365;28;20207;-75
2022/07/10 01:49:12;;;;;;;5.47;3.17;;;;;;;18.50;64.42;100074.22;4990141;28;20229;-75
2022/07/10 01:51:37;;;;;;;3.70;3.40;;;;;;;18.45;64.74;100081.75;4984384;28;20461;-75
2022/07/10 01:54:03;;;;;;;3.93;3.60;;;;;;;18.42;64.47;100082.88;4984002;28;20464;-76
2022/07/10 01:56:28;;;;;;;4.40;3.53;;;;;;;18.43;64.45;100086.34;5000231;28;20218;-76
2022/07/10 01:58:53;;;;;;;4.47;4.07;;;;;;;18.42;64.51;100087.34;4996843;28;20227;-76
2022/07/10 02:01:19;;;;;;;6.10;4.10;;;;;;;18.41;65.04;100090.97;4981343;28;20476;-76
2022/07/10 02:06:28;;;;;;;4.70;3.93;;;;;;;18.26;65.57;100098.50;4983644;28;20224;-76
2022/07/10 02:08:53;;;;;;;5.17;3.50;;;;;;;18.16;65.35;100097.63;4994532;28;20462;-76
2022/07/10 02:11:19;;;;;;;4.17;3.50;;;;;;;18.14;65.51;100097.75;4991318;28;20265;-76
2022/07/10 02:13:44;;;;;;;6.13;4.07;;;;;;;18.15;65.58;100102.09;4991558;28;20323;-76
2022/07/10 02:16:10;;;;;;;4.77;4.33;;;;;;;18.18;65.40;100101.00;4983849;28;20990;-75
2022/07/10 02:18:36;;;;;;;4.57;4.00;;;;;;;18.18;65.28;100093.84;4990749;28;20946;-75
2022/07/10 02:21:02;;;;;;;4.20;3.90;;;;;;;18.12;65.50;100097.88;4990611;28;20449;-76
2022/07/10 02:23:28;;;;;;;3.73;3.53;;;;;;;18.09;65.71;100098.16;4965478;28;20477;-75
2022/07/10 02:25:53;;;;;;;4.57;3.90;;;;;;;18.07;65.90;100099.28;4990831;28;20227;-75
2022/07/10 02:28:19;;;;;;;4.00;3.70;;;;;;;18.04;65.83;100096.88;4987446;28;20539;-75
2022/07/10 02:30:44;;;;;;;4.33;3.93;;;;;;;18.02;65.99;100097.00;4996309;28;20208;-76
2022/07/10 02:33:09;;;;;;;4.10;3.80;;;;;;;17.98;66.02;100097.38;4980330;28;20303;-77
2022/07/10 02:35:35;;;;;;;5.37;4.30;;;;;;;17.90;66.36;100096.25;4982939;28;20666;-76
2022/07/10 02:38:00;;;;;;;4.40;4.10;;;;;;;17.88;66.36;100092.88;4980195;28;20224;-76
2022/07/10 02:40:25;;;;;;;5.17;4.20;;;;;;;17.89;66.40;100097.22;4981457;28;20314;-76
2022/07/10 02:42:51;;;;;;;4.77;4.27;;;;;;;17.87;66.30;100088.53;4998813;28;20232;-76
2022/07/10 02:45:16;;;;;;;4.93;4.43;;;;;;;17.86;66.45;100089.50;4989791;28;21074;-76
2022/07/10 02:47:42;;;;;;;5.57;5.10;;;;;;;17.80;66.74;100087.38;4987656;28;20205;-76
2022/07/10 02:50:08;;;;;;;4.57;4.17;;;;;;;17.77;66.63;100084.97;4983622;28;20250;-76
2022/07/10 02:52:33;;;;;;;5.00;4.60;;;;;;;17.75;66.79;100094.03;4984428;28;20250;-75
2022/07/10 02:54:59;;;;;;;4.77;4.20;;;;;;;17.67;67.19;100092.03;4980490;28;21030;-76
2022/07/10 02:57:24;;;;;;;4.80;4.50;;;;;;;17.63;67.35;100093.25;4985638;28;20198;-76
2022/07/10 02:59:50;;;;;;;6.30;4.57;;;;;;;17.63;67.36;100095.91;4982841;28;20294;-76
2022/07/10 03:02:16;;;;;;;6.93;5.32;;;;;;;17.61;67.60;100098.72;4986518;28;20556;-76
2022/07/10 03:04:41;;;;;;;4.50;4.10;;;;;;;17.60;67.64;100101.50;4999512;28;20610;-76
2022/07/10 03:07:07;;;;;;;6.10;4.87;;;;;;;17.57;67.78;100086.66;4988486;28;20270;-76
2022/07/10 03:09:32;;;;;;;5.10;4.57;;;;;;;17.55;67.83;100093.06;4996296;28;20310;-76
2022/07/10 03:11:58;;;;;;;4.80;4.40;;;;;;;17.56;67.81;100084.16;4993762;28;20228;-76
2022/07/10 03:14:23;;;;;;;5.90;5.30;;;;;;;17.58;67.73;100083.06;4985652;28;20207;-76
2022/07/10 03:16:48;;;;;;;5.73;4.83;;;;;;;17.59;67.73;100078.56;4999319;28;20567;-75
2022/07/10 03:19:14;;;;;;;4.53;3.97;;;;;;;17.55;67.94;100077.13;4997874;28;20273;-76
2022/07/10 03:21:40;;;;;;;4.97;4.57;;;;;;;17.50;68.25;100085.53;4991682;28;20315;-75
2022/07/10 03:24:05;;;;;;;5.03;4.20;;;;;;;17.46;68.37;100081.44;4984169;28;20462;-76
2022/07/10 03:26:31;;;;;;;4.60;4.20;;;;;;;17.46;68.71;100084.09;5002508;28;20210;-75
2022/07/10 03:28:56;;;;;;;4.00;3.67;;;;;;;17.45;68.61;100088.56;4999250;28;20341;-75
2022/07/10 03:31:22;;;;;;;6.33;4.80;;;;;;;17.45;68.59;100088.56;4997375;28;20248;-76
2022/07/10 03:33:48;;;;;;;6.28;5.35;;;;;;;17.47;69.42;100091.06;4992013;28;20532;-76
2022/07/10 03:36:14;;;;;;;4.50;3.93;;;;;;;17.43;69.52;100094.97;4982697;28;20728;-76
2022/07/10 03:38:40;;;;;;;5.27;4.60;;;;;;;17.37;69.76;100093.66;4986495;28;20522;-76
2022/07/10 03:41:05;;;;;;;5.67;4.93;;;;;;;17.29;70.00;100088.16;4988241;28;20460;-76
2022/07/10 03:43:31;;;;;;;7.20;5.20;;;;;;;17.28;70.05;100091.78;4981643;28;20240;-76
2022/07/10 03:45:57;;;;;;;5.10;4.60;;;;;;;17.28;69.89;100094.44;4984726;28;20327;-75
2022/07/10 03:48:22;;;;;;;5.70;5.20;;;;;;;17.29;70.00;100096.13;4988624;28;20212;-75
2022/07/10 03:50:51;;;;;;;7.00;5.33;;;;;;;17.30;69.92;100089.84;4985280;28;20502;-75
2022/07/10 03:53:20;;;;;;;5.70;5.20;;;;;;;17.29;70.16;100090.81;4993925;28;20227;-75
2022/07/10 03:55:46;;;;;;;5.33;4.93;;;;;;;17.27;70.20;100090.09;4990392;28;20458;-76
2022/07/10 03:58:11;;;;;;;6.80;6.10;;;;;;;17.28;70.45;100090.94;4987084;28;20462;-75
2022/07/10 04:00:38;;;;;;;6.30;5.73;;;;;;;17.30;70.43;100092.50;4991016;28;21006;-75
2022/07/10 04:03:05;;;;;;;6.43;5.82;;;;;;;17.33;71.01;100094.88;4984079;28;21001;-76
2022/07/10 04:05:31;;;;;;;6.23;5.63;;;;;;;17.33;71.12;100089.56;4988104;28;20834;-75
2022/07/10 04:07:57;;;;;;;6.17;5.40;;;;;;;17.33;71.11;100091.41;4998284;28;20584;-76
2022/07/10 04:10:24;;;;;;;8.07;5.53;;;;;;;17.34;71.05;100091.28;4997255;28;20227;-75
2022/07/10 04:12:50;;;;;;;6.10;5.50;;;;;;;17.34;70.95;100095.75;4990829;28;20487;-76
2022/07/10 04:15:16;;;;;;;5.57;5.17;;;;;;;17.35;70.85;100095.59;4982860;28;20498;-75
2022/07/10 04:17:42;;;;;;;5.53;5.07;;;;;;;17.40;70.74;100095.22;4984070;28;20220;-75
2022/07/10 04:20:08;;;;;;;5.70;5.20;;;;;;;17.43;70.60;100103.78;4980241;28;20460;-75
2022/07/10 04:22:34;;;;;;;4.80;4.40;;;;;;;17.46;70.47;100095.53;4986925;28;20489;-76
2022/07/10 04:24:59;;;;;;;7.17;5.40;;;;;;;17.46;70.57;100094.69;4983662;28;20463;-76
2022/07/10 04:27:25;;;;;;;5.93;4.73;;;;;;;17.46;70.47;100095.53;4987969;28;20215;-75
2022/07/10 04:29:50;;;;;;;5.63;5.23;;;;;;;17.52;70.11;100098.66;4986851;28;20228;-75
2022/07/10 04:32:16;;;;;;;5.10;4.60;;;;;;;17.62;69.95;100099.56;4987475;28;20583;-76
2022/07/10 04:34:42;;;;;;;4.23;3.87;;;;;;;17.69;69.49;100098.91;4990937;28;20577;-76
2022/07/10 04:37:07;;;;;;;8.70;4.20;;;;;;;17.77;69.08;100094.72;4995126;28;20416;-76
2022/07/10 04:39:34;;;;;;;4.73;4.40;;;;;;;17.79;68.75;100098.97;4989503;28;20240;-75
2022/07/10 04:42:00;;;;;;;5.20;3.40;;;;;;;17.83;68.38;100102.22;4997521;28;20238;-75
2022/07/10 04:44:26;;;;;;;4.83;4.43;;;;;;;17.95;67.75;100102.97;5006957;28;20993;-76
2022/07/10 04:46:51;;;;;;;4.20;3.80;;;;;;;18.02;67.35;100115.59;4989016;28;20467;-76
2022/07/10 04:49:16;;;;;;;6.50;3.70;;;;;;;18.13;66.74;100110.19;4983739;28;20258;-76
2022/07/10 04:51:42;;;;;;;4.23;3.83;;;;;;;18.27;66.28;100114.31;4985106;28;20224;-76
2022/07/10 04:54:07;;;;;;;3.73;3.43;;;;;;;18.36;65.42;100115.31;5001563;28;20724;-76
2022/07/10 04:56:32;;;;;;;5.93;3.80;;;;;;;18.81;63.94;100119.38;4989566;28;20231;-75
2022/07/10 04:58:58;;;;;;;5.60;3.53;;;;;;;19.84;60.36;100116.94;5006353;28;20282;-75
2022/07/10 05:01:23;;;;;;;3.73;3.40;;;;;;;20.82;57.01;100104.00;4984839;28;20223;-75
2022/07/10 05:03:49;;;;;;;3.50;3.20;;;;;;;21.60;54.09;100119.38;4987440;28;20209;-75
2022/07/10 05:06:14;;;;;;;2.93;2.53;;;;;;;22.30;52.24;100113.94;4986271;28;20834;-76
2022/07/10 05:08:39;;;;;;;3.63;3.33;;;;;;;23.21;49.87;100109.66;5001614;28;20244;-75
2022/07/10 05:11:05;;;;;;;3.73;3.47;;;;;;;23.88;47.60;100096.88;4988580;28;20256;-75
2022/07/10 05:13:31;;;;;;;7.50;3.03;;;;;;;24.19;46.72;100110.34;4995065;28;20235;-75
2022/07/10 05:15:56;;;;;;;3.57;2.67;;;;;;;24.45;45.50;100111.97;4989119;28;20268;-75
2022/07/10 05:18:21;;;;;;;5.23;3.23;;;;;;;24.64;44.75;100118.75;5003252;28;20215;-75
2022/07/10 05:20:49;;;;;;;4.47;2.43;;;;;;;24.64;44.17;100119.56;4997547;28;20207;-75
2022/07/10 05:23:15;;;;;;;3.40;2.50;;;;;;;24.91;43.43;100107.47;5002190;28;20289;-75
2022/07/10 05:25:40;;;;;;;2.37;2.17;;;;;;;25.34;42.00;100107.84;4993253;28;20981;-75
2022/07/10 05:28:06;;;;;;;4.60;2.13;;;;;;;25.67;41.43;100112.94;4994689;28;20455;-75
2022/07/10 05:30:32;;;;;;;3.47;2.87;;;;;;;26.15;40.42;100116.13;4996015;28;20237;-75
2022/07/10 05:32:58;;;;;;;4.13;2.60;;;;;;;26.28;39.30;100123.56;4987543;28;21444;-76
2022/07/10 05:35:23;;;;;;;3.13;2.30;;;;;;;26.25;39.48;100124.78;4995441;28;20693;-76
2022/07/10 05:37:48;;;;;;;2.70;2.07;;;;;;;26.49;38.52;100120.06;4993664;28;20262;-76
2022/07/10 05:40:14;;;;;;;7.00;3.03;;;;;;;26.83;37.88;100126.72;4984094;28;20236;-76
2022/07/10 05:42:39;;;;;;;2.33;2.07;;;;;;;26.86;37.89;100126.34;4993791;28;20283;-76
2022/07/10 05:45:06;;;;;;;3.73;1.87;;;;;;;26.85;37.87;100127.38;4992170;28;20347;-76
2022/07/10 05:47:33;;;;;;;4.50;2.20;;;;;;;26.80;37.43;100132.50;4991819;28;20202;-76
2022/07/10 05:49:59;;;;;;;3.87;2.13;;;;;;;26.85;37.63;100120.13;4992180;28;20487;-76
2022/07/10 05:52:25;;;;;;;3.30;2.60;;;;;;;27.01;36.96;100121.75;4985255;28;20523;-76
2022/07/10 05:54:51;;;;;;;5.80;2.77;;;;;;;27.46;36.09;100127.75;5001894;28;20916;-76
2022/07/10 05:57:17;;;;;;;4.30;2.23;;;;;;;27.61;36.16;100118.78;4994747;28;20729;-76
2022/07/10 05:59:42;;;;;;;2.57;2.37;;;;;;;27.83;35.62;100123.09;4990030;28;20196;-76
2022/07/10 06:02:08;;;;;;;1.90;1.70;;;;;;;28.10;34.98;100117.88;4991225;28;20219;-76
2022/07/10 06:04:33;;;;;;;5.20;2.10;;;;;;;28.38;34.40;100117.78;4993369;28;20269;-75
2022/07/10 06:06:59;;;;;;;4.00;2.20;;;;;;;27.92;34.85;100121.94;4985554;28;20231;-76
2022/07/10 06:09:24;;;;;;;2.70;2.20;;;;;;;27.76;34.81;100122.19;4991035;28;21382;-76
2022/07/10 06:11:50;;;;;;;6.10;2.30;;;;;;;27.80;35.20;100118.94;4988252;28;20594;-76
2022/07/10 06:14:15;;;;;;;2.40;2.03;;;;;;;28.44;34.40;100128.66;4992010;28;20212;-76
2022/07/10 06:16:41;;;;;;;3.30;2.10;;;;;;;29.07;33.00;100117.63;5001341;28;20209;-77
2022/07/10 06:19:06;;;;;;;3.60;2.63;;;;;;;29.11;32.61;100118.91;4994936;28;20795;-76
2022/07/10 06:21:32;;;;;;;3.60;2.50;;;;;;;29.27;32.48;100112.25;4992542;28;20215;-76
2022/07/10 06:23:58;;;;;;;3.67;2.03;;;;;;;29.68;31.87;100123.94;4987677;28;20222;-77
2022/07/10 06:26:24;;;;;;;2.23;2.10;;;;;;;29.68;31.43;100126.66;4994300;28;20223;-76
2022/07/10 06:28:49;;;;;;;4.47;2.43;;;;;;;29.33;31.92;100127.66;4998133;28;20481;-76
2022/07/10 06:31:14;;;;;;;3.00;2.00;;;;;;;29.12;32.43;100122.44;5002387;28;20441;-77
2022/07/10 06:33:40;;;;;;;4.10;2.07;;;;;;;29.17;32.06;100129.94;4998371;28;20245;-78
2022/07/10 06:36:06;;;;;;;2.63;2.00;;;;;;;28.89;32.30;100139.84;4993955;28;20222;-77
2022/07/10 06:38:31;;;;;;;3.37;2.23;;;;;;;29.08;32.12;100132.84;4994907;28;20326;-77
2022/07/10 06:40:57;;;;;;;2.77;2.13;;;;;;;28.85;32.32;100133.16;5002369;28;20206;-78
2022/07/10 06:43:22;;;;;;;2.53;2.33;;;;;;;28.50;33.00;100137.84;4992267;28;20902;-78
2022/07/10 06:45:48;;;;;;;2.37;1.93;;;;;;;28.57;32.75;100140.53;4997320;28;20214;-77
2022/07/10 06:48:14;;;;;;;4.77;2.30;;;;;;;29.05;32.12;100129.69;4998636;28;20690;-78
2022/07/10 06:50:40;;;;;;;4.50;2.17;;;;;;;29.44;31.48;100137.03;4995222;28;20227;-77
2022/07/10 06:53:06;;;;;;;3.00;2.23;;;;;;;29.23;31.94;100135.34;4995535;28;21011;-78
2022/07/10 06:55:32;;;;;;;2.70;2.50;;;;;;;28.95;32.21;100140.91;4999075;28;20546;-78
2022/07/10 06:57:58;;;;;;;1.87;1.73;;;;;;;29.11;31.60;100145.09;5004763;28;20718;-78
2022/07/10 07:00:23;;;;;;;4.10;2.70;;;;;;;29.01;31.88;100142.78;5008269;28;20567;-78
2022/07/10 07:02:48;;;;;;;1.83;1.73;;;;;;;28.17;33.47;100149.28;5004288;28;20229;-77
2022/07/10 07:05:14;;;;;;;2.50;2.00;;;;;;;27.10;35.47;100142.16;5002504;28;20235;-77
2022/07/10 07:07:40;;;;;;;3.40;1.83;;;;;;;25.92;37.97;100151.22;4994305;28;20309;-79
2022/07/10 07:10:06;;;;;;;3.13;2.37;;;;;;;25.90;38.06;100152.44;5000757;28;20233;-79
2022/07/10 07:12:32;;;;;;;4.40;2.30;;;;;;;26.75;36.13;100149.25;4996567;28;21220;-77
2022/07/10 07:14:57;;;;;;;3.00;2.17;;;;;;;27.29;35.28;100151.50;4992866;28;20465;-78
2022/07/10 07:17:25;;;;;;;3.90;2.40;;;;;;;27.44;35.01;100156.84;4998423;28;20985;-77
2022/07/10 07:25:21;;;;;;;9.33;2.20;;;;;;;28.54;32.63;100146.34;4995775;28;20952;-78
2022/07/10 07:27:46;;;;;;;3.00;2.57;;;;;;;28.83;32.17;100145.22;4995740;28;20460;-77
2022/07/10 07:30:17;;;;;;;2.73;2.13;;;;;;;28.79;32.16;100152.09;4994572;28;20622;-77
2022/07/10 07:32:45;;;;;;;9.80;3.50;;;;;;;28.94;31.77;100146.50;4996776;28;20707;-77
2022/07/10 07:35:12;;;;;;;2.67;1.73;;;;;;;29.25;31.45;100146.78;4990244;28;20460;-78
2022/07/10 07:37:43;;;;;;;2.40;2.13;;;;;;;29.45;31.25;100148.69;4992436;28;20458;-78
2022/07/10 07:40:11;;;;;;;4.70;2.07;;;;;;;29.65;30.51;100143.28;4995729;28;20466;-78
2022/07/10 07:42:37;;;;;;;2.33;1.67;;;;;;;29.78;30.63;100144.09;4994941;28;20490;-78
2022/07/10 07:45:04;;;;;;;3.83;2.67;;;;;;;30.08;30.00;100135.50;4992935;28;20453;-77
2022/07/10 07:47:30;;;;;;;2.27;2.00;;;;;;;29.88;30.13;100143.69;4998873;28;20457;-78
2022/07/10 07:49:55;;;;;;;2.33;1.60;;;;;;;29.68;30.39;100148.31;4997112;28;20532;-77
2022/07/10 07:52:22;;;;;;;4.50;2.03;;;;;;;29.53;30.50;100152.00;4998109;28;20469;-77
2022/07/10 07:54:48;;;;;;;2.73;2.30;;;;;;;29.83;30.28;100153.47;4993676;28;20219;-78
2022/07/10 07:57:14;;;;;;;2.50;1.80;;;;;;;29.99;29.98;100150.31;4994998;28;20459;-77
2022/07/10 07:59:39;;;;;;;2.10;1.83;;;;;;;29.97;29.60;100141.56;4996695;28;20474;-77
2022/07/10 08:02:05;;;;;;;2.83;2.47;;;;;;;29.91;29.70;100145.97;4999988;28;20291;-77
2022/07/10 08:04:31;;;;;;;4.30;2.17;;;;;;;29.64;30.36;100145.16;4994231;28;20652;-77
2022/07/10 08:06:56;;;;;;;4.80;2.53;;;;;;;29.39;30.65;100147.63;5002127;28;20471;-77
2022/07/10 08:09:21;;;;;;;2.93;2.07;;;;;;;29.30;30.59;100144.31;4994050;28;20226;-78
2022/07/10 08:11:47;;;;;;;2.70;1.87;;;;;;;29.42;30.62;100149.09;4992411;28;20724;-78
2022/07/10 08:14:14;;;;;;;3.57;2.00;;;;;;;29.26;30.89;100148.44;4988757;28;20221;-77
2022/07/10 08:16:40;;;;;;;3.33;2.10;;;;;;;28.55;31.88;100148.03;5003022;28;20288;-78
2022/07/10 08:19:06;;;;;;;2.70;2.37;;;;;;;27.24;34.39;100147.72;5002854;28;20465;-78
2022/07/10 08:21:31;;;;;;;2.37;2.17;;;;;;;25.96;36.77;100146.31;4998275;28;20642;-77
2022/07/10 08:23:57;;;;;;;4.03;2.40;;;;;;;25.95;37.33;100150.00;4982767;28;20607;-78
2022/07/10 08:26:22;;;;;;;2.73;1.87;;;;;;;26.55;35.95;100150.88;4993066;28;20570;-78
2022/07/10 08:28:48;;;;;;;2.60;2.37;;;;;;;27.10;35.01;100136.75;4998369;28;20211;-78
2022/07/10 08:31:13;;;;;;;4.40;2.00;;;;;;;26.98;35.20;100142.84;5001579;28;20588;-77
2022/07/10 08:33:39;;;;;;;3.92;2.75;;;;;;;26.56;36.17;100141.75;4988576;28;20488;-77
2022/07/10 08:36:05;;;;;;;2.47;2.27;;;;;;;26.37;37.08;100143.97;4987634;28;20731;-77
2022/07/10 08:38:30;;;;;;;4.77;2.93;;;;;;;26.07;37.32;100143.16;4999783;28;20667;-77
2022/07/10 08:40:57;;;;;;;4.70;2.30;;;;;;;25.88;37.89;100143.72;5004800;28;20560;-77
2022/07/10 08:43:25;;;;;;;2.23;2.03;;;;;;;25.94;37.95;100148.34;4990233;28;20318;-78
2022/07/10 08:45:53;;;;;;;3.73;2.50;;;;;;;26.03;37.45;100145.41;4996120;28;20548;-77
2022/07/10 08:48:22;;;;;;;2.80;2.17;;;;;;;26.02;37.12;100143.72;4987351;28;20923;-77
2022/07/10 08:50:52;;;;;;;3.10;2.30;;;;;;;26.25;36.76;100148.19;4994713;28;21020;-76
2022/07/10 08:53:31;;;;;;;4.50;2.23;;;;;;;26.21;37.11;100142.31;5004817;28;20800;-77
2022/07/10 08:55:59;;;;;;;5.37;3.80;;;;;;;26.23;36.85;100132.19;4991412;28;20508;-77
2022/07/10 08:58:27;;;;;;;4.17;3.67;;;;;;;26.05;37.46;100140.63;4990173;28;20944;-76
2022/07/10 09:00:53;;;;;;;4.20;2.30;;;;;;;25.71;37.82;100149.22;4996747;28;20454;-76
2022/07/10 09:03:19;;;;;;;5.23;2.10;;;;;;;25.50;38.27;100157.97;4989272;28;20456;-76
2022/07/10 09:05:45;;;;;;;2.83;2.20;;;;;;;25.65;38.18;100149.94;4988508;28;20466;-76
2022/07/10 09:08:31;;;;;;;3.30;2.77;;;;;;;25.73;37.73;100155.22;5001449;28;20461;-76
2022/07/10 09:11:16;;;;;;;2.43;2.23;;;;;;;25.50;38.29;100157.97;4993253;28;20542;-76
2022/07/10 09:13:56;;;;;;;3.67;2.30;;;;;;;25.54;38.18;100163.81;4995039;28;20582;-77
2022/07/10 09:16:27;;;;;;;3.37;2.93;;;;;;;25.70;37.93;100149.41;4986884;28;20517;-78
2022/07/10 09:18:53;;;;;;;2.40;2.20;;;;;;;25.73;38.11;100155.22;4997875;28;20473;-78
2022/07/10 09:21:19;;;;;;;3.03;2.70;;;;;;;25.80;38.02;100144.59;4986653;28;20467;-78
2022/07/10 09:23:45;;;;;;;6.67;2.40;;;;;;;25.84;37.77;100143.22;4992552;28;20455;-79
2022/07/10 09:26:11;;;;;;;2.67;2.47;;;;;;;25.86;37.64;100151.13;4981647;28;20596;-78
2022/07/10 09:28:37;;;;;;;3.17;1.90;;;;;;;25.81;37.58;100139.00;5002898;28;20203;-77
2022/07/10 09:31:02;;;;;;;5.03;2.50;;;;;;;25.80;37.47;100148.13;5002460;28;21190;-77
2022/07/10 09:33:30;;;;;;;3.60;2.50;;;;;;;25.93;37.34;100136.75;4993779;28;20518;-77
2022/07/10 09:36:07;;;;;;;2.80;2.60;;;;;;;25.90;37.68;100129.06;4987591;28;20216;-77
2022/07/10 09:38:54;;;;;;;3.70;2.30;;;;;;;26.04;37.72;100122.81;4991075;28;20473;-77
2022/07/10 09:41:29;;;;;;;3.03;1.73;;;;;;;26.15;37.63;100126.09;4998561;28;20669;-77
2022/07/10 09:44:03;;;;;;;2.83;2.20;;;;;;;25.96;38.25;100135.53;4990005;28;20989;-77
2022/07/10 09:46:37;;;;;;;7.00;2.63;;;;;;;25.83;38.45;100128.06;4987213;28;20462;-78
2022/07/10 09:49:13;;;;;;;3.00;2.10;;;;;;;25.81;38.24;100133.63;5001219;28;20460;-77
2022/07/10 09:51:44;;;;;;;3.57;2.77;;;;;;;25.87;37.90;100124.03;4999391;28;20509;-78
2022/07/10 09:54:10;;;;;;;3.30;2.43;;;;;;;26.02;37.43;100130.25;4995588;28;20827;-77
2022/07/10 09:56:41;;;;;;;2.60;2.37;;;;;;;26.09;37.08;100129.53;5001484;28;20463;-77
2022/07/10 09:59:12;;;;;;;2.47;2.20;;;;;;;26.01;37.66;100127.75;4992292;28;20476;-77
2022/07/10 10:01:43;;;;;;;3.57;3.10;;;;;;;26.09;37.19;100130.34;4997585;28;20506;-77
2022/07/10 10:04:10;;;;;;;4.37;2.50;;;;;;;25.92;37.29;100132.38;4993035;28;20529;-77
2022/07/10 10:06:37;;;;;;;2.83;2.43;;;;;;;25.88;37.36;100120.31;4979534;28;21808;-77
2022/07/10 10:09:23;;;;;;;5.73;3.80;;;;;;;25.52;37.92;100117.44;4980522;28;20726;-77
2022/07/10 10:11:56;;;;;;;3.17;2.07;;;;;;;25.67;37.85;100120.16;4983612;28;20484;-77
2022/07/10 10:14:23;;;;;;;6.63;2.50;;;;;;;25.87;37.32;100121.34;4991172;28;20509;-77
2022/07/10 10:16:49;;;;;;;2.63;2.40;;;;;;;25.88;37.36;100123.00;4985873;28;20544;-77
2022/07/10 10:22:02;;;;;;;4.03;1.93;;;;;;;25.64;37.71;100125.91;4995706;28;21010;-77
2022/07/10 10:24:31;;;;;;;2.47;2.10;;;;;;;25.85;37.45;100127.94;4984062;28;20475;-77
2022/07/10 10:26:57;;;;;;;2.87;2.67;;;;;;;25.92;36.78;100115.38;4985015;28;20464;-76
2022/07/10 10:29:23;;;;;;;2.40;2.20;;;;;;;25.92;37.26;100124.28;4988530;28;20493;-76
2022/07/10 10:31:49;;;;;;;2.67;2.20;;;;;;;25.96;37.19;100119.41;4988305;28;20259;-77
2022/07/10 10:34:56;;;;;;;3.17;2.70;;;;;;;26.24;36.85;100116.88;4987448;28;21042;-77
2022/07/10 10:37:27;;;;;;;3.50;2.58;;;;;;;26.46;36.32;100112.38;4987167;28;20492;-77
2022/07/10 10:39:57;;;;;;;3.13;2.47;;;;;;;26.74;35.92;100106.31;4986882;28;20201;-77
2022/07/10 10:42:37;;;;;;;2.80;2.60;;;;;;;26.93;35.18;100111.09;4981787;28;20514;-77
2022/07/10 10:45:32;;;;;;;4.47;2.80;;;;;;;26.74;34.91;100114.41;4988568;28;20457;-77
2022/07/10 10:48:00;;;;;;;9.00;2.30;;;;;;;26.85;34.86;100105.81;4989708;28;20961;-77
2022/07/10 10:50:48;;;;;;;3.00;2.70;;;;;;;26.70;35.17;100098.59;4994436;28;20494;-77
2022/07/10 10:53:27;;;;;;;2.60;2.40;;;;;;;26.67;35.15;100103.53;4991652;28;20563;-77
2022/07/10 10:56:01;;;;;;;4.07;2.80;;;;;;;26.58;34.33;100102.84;4995503;28;20547;-76
2022/07/10 10:58:35;;;;;;;3.90;2.90;;;;;;;26.59;34.45;100091.00;4995429;28;20488;-77
2022/07/10 11:01:23;;;;;;;3.35;2.50;;;;;;;26.72;34.65;100097.59;5002122;28;20975;-77
2022/07/10 11:04:03;;;;;;;3.33;3.03;;;;;;;26.82;34.61;100098.13;5001911;28;20471;-77
2022/07/10 11:06:42;;;;;;;3.13;2.90;;;;;;;26.84;34.02;100102.28;4995628;28;20541;-77
2022/07/10 11:09:30;;;;;;;2.93;2.73;;;;;;;26.82;34.27;100087.34;5000131;28;20491;-77
2022/07/10 11:12:06;;;;;;;5.30;2.77;;;;;;;26.73;34.80;100083.91;4992959;28;20456;-77
2022/07/10 11:14:37;;;;;;;3.80;2.60;;;;;;;26.61;34.26;100096.22;4999698;28;20940;-76
2022/07/10 11:17:03;;;;;;;2.80;2.60;;;;;;;26.36;34.71;100095.69;4999826;28;20979;-77
2022/07/10 11:19:30;;;;;;;3.07;2.77;;;;;;;26.16;35.41;100081.97;4993680;28;20447;-77
2022/07/10 11:22:07;;;;;;;3.67;2.40;;;;;;;25.88;34.78;100079.13;4986740;28;20472;-77
2022/07/10 11:25:02;;;;;;;2.42;2.22;;;;;;;25.69;35.94;100086.69;4990702;28;20645;-77
2022/07/10 11:27:51;;;;;;;3.47;2.37;;;;;;;25.83;35.42;100082.31;4981875;28;20495;-77
2022/07/10 11:30:16;;;;;;;3.33;2.00;;;;;;;25.78;35.36;100082.03;4988469;28;20490;-76
2022/07/10 11:32:41;;;;;;;6.73;3.03;;;;;;;25.67;35.18;100082.50;4988210;28;20466;-77
2022/07/10 11:35:11;;;;;;;4.00;2.20;;;;;;;25.53;35.44;100081.47;4996216;28;21037;-77
2022/07/10 11:37:48;;;;;;;4.78;2.40;;;;;;;25.38;35.05;100078.72;4984404;28;20481;-77